createdAt,value
2017-12-02T00:00:12.162Z,80.29
2017-12-02T00:02:40.227Z,80.89
2017-12-02T00:05:08.572Z,79.98
2017-12-02T00:07:37.203Z,80.78
2017-12-02T00:10:05.556Z,80.35
2017-12-02T00:12:33.895Z,80.42
2017-12-02T00:15:02.259Z,79.62
2017-12-02T00:17:30.607Z,80.18
2017-12-02T00:19:59.003Z,79.23
2017-12-02T00:22:27.346Z,78.01
2017-12-02T00:24:55.690Z,79.28
2017-12-02T00:27:24.046Z,80.07
2017-12-02T00:29:52.398Z,80.35
2017-12-02T00:32:20.769Z,80.03
2017-12-02T00:34:49.110Z,78.14
2017-12-02T00:37:17.471Z,78.41
2017-12-02T00:39:45.817Z,79.35
2017-12-02T00:42:14.190Z,80.49
2017-12-02T00:44:42.538Z,79.74
2017-12-02T00:47:10.887Z,77.89
2017-12-02T00:49:39.240Z,76.90
2017-12-02T00:52:07.620Z,78.36
2017-12-02T00:54:35.967Z,77.20
2017-12-02T00:57:04.323Z,77.77
2017-12-02T00:59:32.673Z,77.90
2017-12-02T01:02:01.026Z,78.52
2017-12-02T01:04:29.400Z,77.76
2017-12-02T01:06:57.750Z,77.01
2017-12-02T01:09:26.103Z,77.39
2017-12-02T01:11:54.462Z,77.11
2017-12-02T01:14:22.805Z,77.52
2017-12-02T01:16:51.180Z,78.16
2017-12-02T01:19:19.523Z,78.69
2017-12-02T01:21:47.878Z,77.89
2017-12-02T01:24:16.223Z,78.70
2017-12-02T01:26:44.569Z,77.57
2017-12-02T01:29:12.948Z,78.19
2017-12-02T01:31:41.286Z,79.36
2017-12-02T01:34:09.642Z,79.22
2017-12-02T01:36:37.981Z,78.64
2017-12-02T01:39:06.323Z,79.31
2017-12-02T01:41:34.707Z,79.08
2017-12-02T01:44:03.095Z,78.27
2017-12-02T01:46:31.442Z,78.37
2017-12-02T01:48:59.822Z,78.13
2017-12-02T01:51:28.187Z,76.55
2017-12-02T01:53:56.539Z,76.07
2017-12-02T01:56:24.892Z,74.97
2017-12-02T01:58:53.238Z,75.61
2017-12-02T02:01:21.623Z,76.31
2017-12-02T02:03:49.962Z,76.59
2017-12-02T02:06:18.312Z,77.33
2017-12-02T02:08:46.655Z,78.09
2017-12-02T02:11:14.994Z,78.46
2017-12-02T02:13:43.546Z,79.61
2017-12-02T02:16:11.894Z,79.82
2017-12-02T02:18:40.235Z,79.39
2017-12-02T02:21:08.585Z,78.81
2017-12-02T02:23:36.930Z,78.16
2017-12-02T02:26:05.301Z,78.04
2017-12-02T02:28:33.651Z,78.05
2017-12-02T02:31:01.995Z,78.60
2017-12-02T02:33:30.339Z,77.80
2017-12-02T02:35:58.687Z,76.40
2017-12-02T02:38:27.398Z,77.56
2017-12-02T02:40:56.172Z,78.36
2017-12-02T02:43:24.896Z,77.99
2017-12-02T02:45:53.532Z,78.43
2017-12-02T02:48:22.158Z,78.29
2017-12-02T02:50:51.103Z,78.81
2017-12-02T02:53:22.427Z,78.57
2017-12-02T02:55:51.415Z,77.02
2017-12-02T02:58:20.667Z,76.08
2017-12-02T03:00:49.324Z,75.86
2017-12-02T03:03:17.849Z,76.87
2017-12-02T03:05:46.215Z,76.46
2017-12-02T03:08:14.690Z,75.99
2017-12-02T03:10:43.031Z,75.19
2017-12-02T03:13:11.383Z,75.95
2017-12-02T03:15:39.731Z,75.66
2017-12-02T03:18:08.085Z,76.07
2017-12-02T03:20:36.559Z,77.54
2017-12-02T03:23:04.908Z,77.23
2017-12-02T03:25:33.255Z,77.70
2017-12-02T03:28:01.604Z,78.96
2017-12-02T03:30:29.947Z,79.50
2017-12-02T03:32:58.326Z,79.43
2017-12-02T03:35:26.679Z,80.16
2017-12-02T03:37:55.022Z,80.00
2017-12-02T03:40:23.367Z,79.81
2017-12-02T03:42:51.743Z,81.46
2017-12-02T03:45:20.103Z,81.92
2017-12-02T03:47:48.447Z,81.51
2017-12-02T03:50:16.799Z,80.86
2017-12-02T03:52:45.142Z,82.63
2017-12-02T03:55:13.692Z,80.83
2017-12-02T03:57:42.044Z,82.81
2017-12-02T04:00:30.773Z,82.78
2017-12-02T04:02:59.130Z,81.97
2017-12-02T04:05:27.510Z,80.84
2017-12-02T04:07:55.858Z,81.25
2017-12-02T04:10:24.206Z,82.39
2017-12-02T04:12:52.555Z,83.58
2017-12-02T04:15:20.910Z,84.12
2017-12-02T04:17:49.322Z,83.56
2017-12-02T04:20:17.673Z,82.25
2017-12-02T04:22:46.018Z,84.33
2017-12-02T04:25:14.370Z,86.08
2017-12-02T04:27:42.715Z,85.33
2017-12-02T04:30:11.073Z,84.03
2017-12-02T04:32:39.419Z,83.75
2017-12-02T04:35:07.950Z,82.41
2017-12-02T04:37:36.298Z,82.34
2017-12-02T04:40:04.647Z,82.62
2017-12-02T04:42:32.992Z,81.06
2017-12-02T04:45:01.344Z,80.11
2017-12-02T04:47:29.717Z,79.52
2017-12-02T04:49:58.071Z,80.91
2017-12-02T04:52:26.414Z,81.41
2017-12-02T04:54:54.763Z,82.34
2017-12-02T04:57:23.117Z,82.88
2017-12-02T04:59:51.545Z,82.34
2017-12-02T05:02:19.866Z,83.09
2017-12-02T05:04:48.210Z,82.64
2017-12-02T05:07:16.564Z,80.75
2017-12-02T05:09:44.908Z,81.52
2017-12-02T05:12:13.251Z,81.44
2017-12-02T05:14:41.636Z,79.92
2017-12-02T05:17:09.976Z,81.49
2017-12-02T05:19:38.333Z,85.27
2017-12-02T05:22:06.685Z,84.82
2017-12-02T05:24:35.032Z,85.25
2017-12-02T05:27:03.422Z,83.90
2017-12-02T05:29:31.777Z,82.79
2017-12-02T05:32:00.114Z,82.39
2017-12-02T05:34:28.467Z,81.89
2017-12-02T05:36:56.810Z,82.43
2017-12-02T05:39:25.300Z,82.10
2017-12-02T05:41:53.646Z,80.86
2017-12-02T05:44:21.990Z,80.98
2017-12-02T05:46:50.348Z,80.59
2017-12-02T05:49:18.691Z,80.56
2017-12-02T05:51:47.078Z,81.59
2017-12-02T05:54:15.427Z,82.13
2017-12-02T05:56:43.773Z,82.57
2017-12-02T05:59:12.109Z,82.52
2017-12-02T06:01:40.469Z,81.88
2017-12-02T06:04:08.844Z,81.56
2017-12-02T06:06:37.182Z,82.23
2017-12-02T06:09:05.531Z,81.45
2017-12-02T06:11:33.883Z,80.88
2017-12-02T06:14:02.226Z,80.98
2017-12-02T06:16:30.624Z,79.81
2017-12-02T06:18:58.982Z,79.85
2017-12-02T06:21:27.326Z,79.63
2017-12-02T06:23:55.671Z,79.32
2017-12-02T06:26:24.028Z,78.84
2017-12-02T06:28:52.462Z,78.89
2017-12-02T06:31:20.807Z,78.88
2017-12-02T06:33:49.159Z,78.90
2017-12-02T06:36:17.531Z,78.76
2017-12-02T06:38:45.874Z,79.27
2017-12-02T06:41:14.355Z,79.18
2017-12-02T06:43:42.702Z,79.59
2017-12-02T06:46:11.051Z,79.27
2017-12-02T06:48:39.396Z,79.65
2017-12-02T06:51:07.745Z,80.54
2017-12-02T06:53:36.120Z,80.39
2017-12-02T06:56:04.472Z,79.53
2017-12-02T06:58:32.822Z,80.26
2017-12-02T07:01:01.176Z,80.53
2017-12-02T07:03:29.531Z,81.54
2017-12-02T07:05:57.914Z,81.70
2017-12-02T07:08:26.259Z,83.18
2017-12-02T07:10:54.616Z,82.00
2017-12-02T07:13:22.991Z,81.13
2017-12-02T07:15:51.339Z,81.30
2017-12-02T07:18:19.693Z,81.68
2017-12-02T07:20:48.034Z,81.13
2017-12-02T07:23:16.395Z,81.94
2017-12-02T07:25:44.881Z,82.48
2017-12-02T07:28:13.236Z,83.07
2017-12-02T07:30:41.577Z,82.26
2017-12-02T07:33:09.922Z,81.98
2017-12-02T07:35:38.287Z,82.08
2017-12-02T07:38:06.666Z,83.35
2017-12-02T07:40:35.017Z,82.70
2017-12-02T07:43:03.366Z,82.70
2017-12-02T07:45:31.713Z,80.96
2017-12-02T07:48:00.062Z,80.98
2017-12-02T07:50:28.455Z,80.44
2017-12-02T07:52:56.800Z,79.23
2017-12-02T07:55:25.175Z,78.17
2017-12-02T07:57:53.528Z,77.41
2017-12-02T08:00:21.888Z,76.08
2017-12-02T08:02:50.279Z,76.34
2017-12-02T08:05:18.637Z,76.83
2017-12-02T08:07:46.981Z,76.35
2017-12-02T08:10:15.324Z,76.08
2017-12-02T08:12:43.672Z,75.43
2017-12-02T08:15:12.042Z,74.15
2017-12-02T08:17:40.387Z,74.61
2017-12-02T08:20:09.434Z,73.90
2017-12-02T08:22:37.795Z,72.42
2017-12-02T08:25:06.151Z,72.65
2017-12-02T08:27:34.532Z,71.33
2017-12-02T08:30:02.879Z,73.48
2017-12-02T08:32:31.223Z,72.89
2017-12-02T08:34:59.583Z,71.35
2017-12-02T08:37:27.936Z,71.84
2017-12-02T08:39:56.316Z,72.23
2017-12-02T08:42:24.663Z,72.35
2017-12-02T08:44:53.013Z,73.18
2017-12-02T08:47:21.357Z,73.92
2017-12-02T08:49:49.706Z,74.32
2017-12-02T08:52:18.092Z,73.91
2017-12-02T08:54:46.486Z,74.25
2017-12-02T08:57:14.835Z,74.67
2017-12-02T08:59:43.184Z,73.90
2017-12-02T09:02:11.527Z,72.28
2017-12-02T09:04:39.912Z,70.63
2017-12-02T09:07:08.262Z,69.00
2017-12-02T09:09:36.634Z,67.56
2017-12-02T09:12:04.977Z,67.22
2017-12-02T09:14:33.327Z,65.65
2017-12-02T09:17:01.686Z,64.12
2017-12-02T09:19:30.071Z,60.18
2017-12-02T09:21:58.433Z,57.76
2017-12-02T09:24:26.789Z,56.44
2017-12-02T09:26:55.176Z,52.84
2017-12-02T09:29:23.532Z,50.39
2017-12-02T09:31:51.897Z,50.69
2017-12-02T09:34:20.237Z,52.47
2017-12-02T09:36:48.574Z,51.75
2017-12-02T09:39:16.916Z,53.99
2017-12-02T09:41:45.260Z,58.74
2017-12-02T09:44:13.602Z,61.08
2017-12-02T09:46:41.950Z,63.68
2017-12-02T09:49:10.314Z,63.86
2017-12-02T09:51:38.650Z,64.13
2017-12-02T09:54:07.755Z,64.64
2017-12-02T09:56:36.113Z,65.33
2017-12-02T09:59:04.463Z,65.49
2017-12-02T10:01:32.819Z,64.64
2017-12-02T10:04:01.184Z,65.97
2017-12-02T10:06:29.530Z,66.25
2017-12-02T10:08:57.883Z,66.96
2017-12-02T10:11:26.247Z,67.17
2017-12-02T10:13:54.603Z,67.09
2017-12-02T10:16:22.966Z,67.01
2017-12-02T10:18:51.314Z,67.40
2017-12-02T10:21:19.687Z,66.56
2017-12-02T10:23:48.047Z,64.19
2017-12-02T10:26:16.399Z,65.45
2017-12-02T10:28:44.752Z,65.34
2017-12-02T10:31:13.104Z,66.65
2017-12-02T10:33:41.454Z,67.68
2017-12-02T10:36:09.807Z,67.83
2017-12-02T10:38:38.154Z,68.34
2017-12-02T10:41:06.522Z,67.84
2017-12-02T10:43:34.890Z,66.45
2017-12-02T10:46:03.248Z,65.71
2017-12-02T10:48:31.636Z,64.60
2017-12-02T10:50:59.996Z,66.44
2017-12-02T10:53:28.367Z,65.31
2017-12-02T10:55:56.753Z,63.52
2017-12-02T10:58:25.103Z,61.91
2017-12-02T11:00:53.458Z,62.08
2017-12-02T11:03:21.839Z,62.00
2017-12-02T11:05:50.186Z,60.80
2017-12-02T11:08:18.539Z,62.58
2017-12-02T11:10:46.919Z,63.65
2017-12-02T11:13:15.274Z,64.73
2017-12-02T11:15:43.628Z,62.67
2017-12-02T11:18:12.009Z,64.05
2017-12-02T11:20:40.361Z,64.70
2017-12-02T11:23:08.711Z,66.67
2017-12-02T11:25:37.106Z,68.46
2017-12-02T11:28:05.466Z,68.53
2017-12-02T11:30:33.829Z,66.59
2017-12-02T11:33:02.212Z,65.04
2017-12-02T11:35:30.554Z,64.97
2017-12-02T11:37:59.108Z,63.91
2017-12-02T11:40:27.541Z,63.10
2017-12-02T11:42:55.888Z,62.47
2017-12-02T11:45:24.232Z,62.68
2017-12-02T11:47:52.580Z,62.11
2017-12-02T11:50:20.930Z,61.43
2017-12-02T11:55:23.879Z,62.05
2017-12-02T11:57:52.235Z,63.57
2017-12-02T12:00:20.580Z,61.45
2017-12-02T12:02:48.928Z,60.18
2017-12-02T12:05:17.280Z,59.90
2017-12-02T12:07:45.623Z,58.24
2017-12-02T12:10:13.967Z,56.92
2017-12-02T12:12:42.302Z,59.72
2017-12-02T12:15:10.656Z,60.77
2017-12-02T12:17:39.000Z,60.30
2017-12-02T12:20:07.346Z,60.18
2017-12-02T12:22:35.695Z,60.21
2017-12-02T12:25:04.035Z,61.30
2017-12-02T12:27:32.377Z,63.29
2017-12-02T12:30:00.724Z,64.54
2017-12-02T12:32:29.074Z,64.61
2017-12-02T12:34:57.439Z,65.52
2017-12-02T12:37:25.796Z,65.57
2017-12-02T12:39:54.154Z,65.16
2017-12-02T12:42:22.515Z,65.67
2017-12-02T12:44:50.878Z,65.70
2017-12-02T12:47:19.233Z,65.53
2017-12-02T12:49:47.576Z,65.49
2017-12-02T12:52:15.919Z,63.71
2017-12-02T12:54:44.267Z,64.41
2017-12-02T12:57:12.744Z,63.69
2017-12-02T12:59:41.099Z,62.09
2017-12-02T13:02:09.454Z,58.39
2017-12-02T13:04:37.819Z,56.34
2017-12-02T13:07:06.186Z,59.07
2017-12-02T13:09:34.542Z,58.61
2017-12-02T13:12:02.914Z,59.52
2017-12-02T13:14:31.316Z,61.52
2017-12-02T13:16:59.647Z,62.62
